createdAt,value
2017-11-30T00:01:55.021Z,5.20
2017-11-30T00:04:22.750Z,5.20
2017-11-30T00:06:51.092Z,5.10
2017-11-30T00:09:18.660Z,5.10
2017-11-30T00:11:46.175Z,5.20
2017-11-30T00:14:13.712Z,5.20
2017-11-30T00:16:41.295Z,5.20
2017-11-30T00:19:08.986Z,5.20
2017-11-30T00:21:36.590Z,5.30
2017-11-30T00:24:04.188Z,5.30
2017-11-30T00:26:31.735Z,5.20
2017-11-30T00:28:59.260Z,5.30
2017-11-30T00:31:26.797Z,5.20
2017-11-30T00:33:54.348Z,5.30
2017-11-30T00:36:22.418Z,5.30
2017-11-30T00:38:58.257Z,5.20
2017-11-30T00:41:26.850Z,5.20
2017-11-30T00:43:59.439Z,5.30
2017-11-30T00:46:29.565Z,5.40
2017-11-30T00:49:00.078Z,5.40
2017-11-30T00:51:39.728Z,5.50
2017-11-30T00:54:11.749Z,5.50
2017-11-30T00:56:39.463Z,5.50
2017-11-30T00:59:07.259Z,5.50
2017-11-30T01:01:35.081Z,5.50
2017-11-30T01:04:02.755Z,5.50
2017-11-30T01:06:33.475Z,5.60
2017-11-30T01:09:01.103Z,5.60
2017-11-30T01:11:29.686Z,5.70
2017-11-30T01:13:57.420Z,5.70
2017-11-30T01:16:25.176Z,5.70
2017-11-30T01:18:53.017Z,5.60
2017-11-30T01:21:27.994Z,5.70
2017-11-30T01:23:55.700Z,5.70
2017-11-30T01:26:23.597Z,5.70
2017-11-30T01:28:52.851Z,5.60
2017-11-30T01:31:21.672Z,5.70
2017-11-30T01:33:52.862Z,5.70
2017-11-30T01:36:21.914Z,5.70
2017-11-30T01:38:50.102Z,5.70
2017-11-30T01:41:17.795Z,5.70
2017-11-30T01:43:45.445Z,5.70
2017-11-30T01:46:13.224Z,5.60
2017-11-30T01:48:40.855Z,5.70
2017-11-30T01:51:08.487Z,5.70
2017-11-30T01:53:36.055Z,5.60
2017-11-30T01:56:03.746Z,5.60
2017-11-30T01:58:31.379Z,5.60
2017-11-30T02:00:58.990Z,5.50
2017-11-30T02:03:26.537Z,5.50
2017-11-30T02:05:54.038Z,5.50
2017-11-30T02:08:21.667Z,5.40
2017-11-30T02:10:49.213Z,5.40
2017-11-30T02:13:16.739Z,5.30
2017-11-30T02:15:44.987Z,5.20
2017-11-30T02:18:12.523Z,5.20
2017-11-30T02:20:40.061Z,5.20
2017-11-30T02:23:07.590Z,5.20
2017-11-30T02:25:35.900Z,5.20
2017-11-30T02:28:03.458Z,5.20
2017-11-30T02:30:30.924Z,5.10
2017-11-30T02:32:58.474Z,5.10
2017-11-30T02:35:26.044Z,5.10
2017-11-30T02:37:53.586Z,5.10
2017-11-30T02:40:21.913Z,5.20
2017-11-30T02:42:49.484Z,5.20
2017-11-30T02:45:17.765Z,5.30
2017-11-30T02:47:46.899Z,5.20
2017-11-30T02:50:14.481Z,5.30
2017-11-30T02:52:42.037Z,5.30
2017-11-30T02:55:09.569Z,5.20
2017-11-30T02:57:37.092Z,5.20
2017-11-30T03:00:04.590Z,5.30
2017-11-30T03:02:32.120Z,5.20
2017-11-30T03:04:59.659Z,5.10
2017-11-30T03:07:27.360Z,5.00
2017-11-30T03:09:54.991Z,5.00
2017-11-30T03:12:23.360Z,5.00
2017-11-30T03:14:50.940Z,5.10
2017-11-30T03:17:19.223Z,5.10
2017-11-30T03:19:46.756Z,5.10
2017-11-30T03:22:14.369Z,5.20
2017-11-30T03:24:41.925Z,5.20
2017-11-30T03:27:09.506Z,5.20
2017-11-30T03:29:37.065Z,5.20
2017-11-30T03:32:04.688Z,5.30
2017-11-30T03:34:32.975Z,5.40
2017-11-30T03:37:00.496Z,5.40
2017-11-30T03:39:28.224Z,5.50
2017-11-30T03:41:55.797Z,5.50
2017-11-30T03:44:23.450Z,5.50
2017-11-30T03:46:51.037Z,5.50
2017-11-30T03:49:19.378Z,5.40
2017-11-30T03:54:34.861Z,5.40
2017-11-30T03:57:02.421Z,5.40
2017-11-30T03:59:30.094Z,5.40
2017-11-30T04:01:59.509Z,5.40
2017-11-30T04:04:30.334Z,5.40
2017-11-30T04:06:59.462Z,5.40
2017-11-30T04:12:17.687Z,5.40
2017-11-30T04:14:45.374Z,5.40
2017-11-30T04:17:13.009Z,5.40
2017-11-30T04:19:43.026Z,5.40
2017-11-30T04:22:12.041Z,5.40
2017-11-30T04:24:39.746Z,5.50
2017-11-30T04:27:07.368Z,5.50
2017-11-30T04:29:35.015Z,5.50
2017-11-30T04:32:02.679Z,5.50
2017-11-30T04:34:30.308Z,5.50
2017-11-30T04:36:58.102Z,5.50
2017-11-30T04:39:26.641Z,5.50
2017-11-30T04:41:54.291Z,5.50
2017-11-30T04:44:21.906Z,5.60
2017-11-30T04:46:49.665Z,5.50
2017-11-30T04:49:17.281Z,5.60
2017-11-30T04:51:44.836Z,5.60
2017-11-30T04:54:12.705Z,5.60
2017-11-30T04:56:40.316Z,5.60
2017-11-30T04:59:08.793Z,5.60
2017-11-30T05:01:37.216Z,5.60
2017-11-30T05:04:04.930Z,5.60
2017-11-30T05:06:32.615Z,5.40
2017-11-30T05:09:00.236Z,5.40
2017-11-30T05:11:27.839Z,5.40
2017-11-30T05:13:55.409Z,5.40
2017-11-30T05:16:22.973Z,5.40
2017-11-30T05:18:50.574Z,5.40
2017-11-30T05:21:18.171Z,5.40
2017-11-30T05:23:45.753Z,5.30
2017-11-30T05:26:14.155Z,5.20
2017-11-30T05:32:21.448Z,5.20
2017-11-30T05:34:51.745Z,5.20
2017-11-30T05:37:20.412Z,5.30
2017-11-30T05:39:52.376Z,5.30
2017-11-30T05:42:47.356Z,5.30
2017-11-30T05:45:23.108Z,5.20
2017-11-30T05:48:01.282Z,5.30
2017-11-30T05:53:43.594Z,5.30
2017-11-30T05:56:20.204Z,5.30
2017-11-30T06:02:02.067Z,5.40
2017-11-30T06:04:32.342Z,5.40
2017-11-30T06:06:59.997Z,5.40
2017-11-30T06:09:27.897Z,5.40
2017-11-30T06:11:55.624Z,5.40
2017-11-30T06:14:24.239Z,5.50
2017-11-30T06:16:51.728Z,5.50
2017-11-30T06:19:19.196Z,5.50
2017-11-30T06:21:46.648Z,5.50
2017-11-30T06:24:14.107Z,5.50
2017-11-30T06:26:41.562Z,5.40
2017-11-30T06:29:09.024Z,5.40
2017-11-30T06:31:36.479Z,5.40
2017-11-30T06:34:03.964Z,5.40
2017-11-30T06:36:31.417Z,5.30
2017-11-30T06:38:58.889Z,5.30
2017-11-30T06:41:26.332Z,5.20
2017-11-30T06:43:53.835Z,5.30
2017-11-30T06:46:21.293Z,5.20
2017-11-30T06:48:48.757Z,5.20
2017-11-30T06:51:16.225Z,5.20
2017-11-30T06:53:43.720Z,5.20
2017-11-30T06:56:11.171Z,5.30
2017-11-30T06:58:38.615Z,5.30
2017-11-30T07:01:06.846Z,5.30
2017-11-30T07:03:34.325Z,5.30
2017-11-30T07:06:01.784Z,5.30
2017-11-30T07:08:29.257Z,5.30
2017-11-30T07:10:56.715Z,5.30
2017-11-30T07:13:24.170Z,5.30
2017-11-30T07:15:51.635Z,5.30
2017-11-30T07:18:19.110Z,5.20
2017-11-30T07:20:46.581Z,5.20
2017-11-30T07:23:14.028Z,5.20
2017-11-30T07:25:41.490Z,5.20
2017-11-30T07:28:08.952Z,5.20
2017-11-30T07:30:36.670Z,5.30
2017-11-30T07:33:04.119Z,5.20
2017-11-30T07:35:31.593Z,5.10
2017-11-30T07:37:59.817Z,5.10
2017-11-30T07:40:27.277Z,5.10
2017-11-30T07:42:54.731Z,5.10
2017-11-30T07:45:22.193Z,5.10
2017-11-30T07:47:49.659Z,5.10
2017-11-30T07:50:17.107Z,5.20
2017-11-30T07:52:44.611Z,5.20
2017-11-30T07:55:12.832Z,5.30
2017-11-30T07:57:40.287Z,5.30
2017-11-30T08:00:07.765Z,5.30
2017-11-30T08:02:35.238Z,5.20
2017-11-30T08:05:02.683Z,5.30
2017-11-30T08:07:30.153Z,5.20
2017-11-30T08:09:57.615Z,5.30
2017-11-30T08:12:25.079Z,5.30
2017-11-30T08:14:53.296Z,5.30
2017-11-30T08:17:20.747Z,5.30
2017-11-30T08:19:48.200Z,5.40
2017-11-30T08:22:15.656Z,5.40
2017-11-30T08:24:43.111Z,5.40
2017-11-30T08:27:10.562Z,5.40
2017-11-30T08:29:38.019Z,5.40
2017-11-30T08:32:05.467Z,5.40
2017-11-30T08:34:32.923Z,5.50
2017-11-30T08:37:01.143Z,5.50
2017-11-30T08:39:28.607Z,5.50
2017-11-30T08:41:56.065Z,5.60
2017-11-30T08:44:23.539Z,5.50
2017-11-30T08:46:50.989Z,5.60
2017-11-30T08:49:18.440Z,5.60
2017-11-30T08:51:45.909Z,5.60
2017-11-30T08:54:13.387Z,5.60
2017-11-30T08:56:41.622Z,5.60
2017-11-30T08:59:09.079Z,5.60
2017-11-30T09:01:36.532Z,5.70
2017-11-30T09:04:03.988Z,5.60
2017-11-30T09:06:31.446Z,5.60
2017-11-30T09:08:58.908Z,5.60
2017-11-30T09:11:26.389Z,5.70
2017-11-30T09:13:53.872Z,5.70
2017-11-30T09:16:21.332Z,5.70
2017-11-30T09:18:48.785Z,5.70
2017-11-30T09:21:17.007Z,5.70
2017-11-30T09:23:44.460Z,5.70
2017-11-30T09:26:11.917Z,5.80
2017-11-30T09:28:39.419Z,5.70
2017-11-30T09:31:07.653Z,5.70
2017-11-30T09:33:35.103Z,5.70
2017-11-30T09:36:02.563Z,5.60
2017-11-30T09:38:30.015Z,5.60
2017-11-30T09:40:57.492Z,5.60
2017-11-30T09:43:24.943Z,5.60
2017-11-30T09:45:52.431Z,5.60
2017-11-30T09:48:19.884Z,5.60
2017-11-30T09:50:47.352Z,5.60
2017-11-30T09:53:15.580Z,5.70
2017-11-30T09:55:43.037Z,5.70
2017-11-30T09:58:10.494Z,5.80
2017-11-30T10:00:37.963Z,5.80
2017-11-30T10:03:05.456Z,5.90
2017-11-30T10:05:33.675Z,6.00
2017-11-30T10:08:01.157Z,5.90
2017-11-30T10:10:28.605Z,5.90
2017-11-30T10:12:56.068Z,6.00
2017-11-30T10:15:23.515Z,6.00
2017-11-30T10:17:50.954Z,6.10
2017-11-30T10:20:18.413Z,6.10
2017-11-30T10:22:45.863Z,6.20
2017-11-30T10:25:13.323Z,6.20
2017-11-30T10:27:40.795Z,6.20
2017-11-30T10:30:08.257Z,6.20
2017-11-30T10:32:35.711Z,6.20
2017-11-30T10:35:03.211Z,6.20
2017-11-30T10:37:31.431Z,6.20
2017-11-30T10:39:58.903Z,6.20
2017-11-30T10:42:26.392Z,6.10
2017-11-30T10:44:53.858Z,6.20
2017-11-30T10:47:21.344Z,6.20
2017-11-30T10:49:48.809Z,6.20
2017-11-30T10:52:16.262Z,6.20
2017-11-30T10:54:43.716Z,6.20
2017-11-30T10:57:11.184Z,6.20
2017-11-30T10:59:38.645Z,6.10
2017-11-30T11:02:06.099Z,6.10
2017-11-30T11:04:33.575Z,6.20
2017-11-30T11:07:01.039Z,6.10
2017-11-30T11:09:28.496Z,6.10
2017-11-30T11:11:55.952Z,6.10
2017-11-30T11:14:23.417Z,6.20
2017-11-30T11:16:50.871Z,6.20
2017-11-30T11:19:18.328Z,6.20
2017-11-30T11:21:45.787Z,6.20
2017-11-30T11:24:13.252Z,6.20
2017-11-30T11:26:40.706Z,6.20
2017-11-30T11:29:08.159Z,6.10
2017-11-30T11:31:35.635Z,6.10
2017-11-30T11:34:03.876Z,6.00
2017-11-30T11:36:31.331Z,6.00
2017-11-30T11:38:58.781Z,6.00
2017-11-30T11:41:26.238Z,6.00
2017-11-30T11:43:53.691Z,5.90
2017-11-30T11:46:21.137Z,6.00
2017-11-30T11:48:48.588Z,5.90
2017-11-30T11:51:16.047Z,6.00
2017-11-30T11:53:43.512Z,5.90
2017-11-30T11:56:10.979Z,5.90
2017-11-30T11:58:38.431Z,5.90
2017-11-30T12:01:05.894Z,5.90
2017-11-30T12:03:33.491Z,5.90
2017-11-30T12:06:01.716Z,5.80
2017-11-30T12:08:29.175Z,5.80
2017-11-30T12:10:56.656Z,5.80
2017-11-30T12:13:24.107Z,5.90
2017-11-30T12:15:51.556Z,5.90
2017-11-30T12:18:19.020Z,5.90
2017-11-30T12:20:46.471Z,5.90
2017-11-30T12:23:13.939Z,5.90
2017-11-30T12:25:41.384Z,5.90
2017-11-30T12:28:08.844Z,5.90
2017-11-30T12:30:36.315Z,5.90
2017-11-30T12:33:03.800Z,5.80
2017-11-30T12:35:32.025Z,5.80
2017-11-30T12:37:59.490Z,5.80
2017-11-30T12:40:26.960Z,5.80
2017-11-30T12:42:54.440Z,5.80
2017-11-30T12:45:21.939Z,5.80
2017-11-30T12:47:49.392Z,5.80
2017-11-30T12:50:16.853Z,5.80
2017-11-30T12:52:44.307Z,5.80
2017-11-30T12:55:11.819Z,5.80
2017-11-30T12:57:39.309Z,5.70
2017-11-30T13:00:06.777Z,5.80
2017-11-30T13:02:34.506Z,5.80
2017-11-30T13:05:01.952Z,5.80
2017-11-30T13:07:29.393Z,5.80
2017-11-30T13:09:56.866Z,5.80
2017-11-30T13:12:25.107Z,5.80
2017-11-30T13:14:52.603Z,5.80
2017-11-30T13:17:20.950Z,5.80
2017-11-30T13:19:48.407Z,5.80
2017-11-30T13:22:15.875Z,5.80
2017-11-30T13:24:43.350Z,5.80
2017-11-30T13:27:11.686Z,5.70
2017-11-30T13:29:39.136Z,5.70
2017-11-30T13:32:06.613Z,5.60
2017-11-30T13:34:34.105Z,5.40
2017-11-30T13:37:01.545Z,5.40
2017-11-30T13:39:29.011Z,5.50
2017-11-30T13:41:57.268Z,5.50
2017-11-30T13:44:24.727Z,5.50
2017-11-30T13:46:52.174Z,5.50
2017-11-30T13:49:19.649Z,5.50
2017-11-30T13:51:47.230Z,5.50
2017-11-30T13:54:14.786Z,5.40
2017-11-30T13:56:42.233Z,5.50
2017-11-30T13:59:10.473Z,5.50
2017-11-30T14:01:37.973Z,5.50
2017-11-30T14:04:05.473Z,5.60
2017-11-30T14:06:32.938Z,5.60
2017-11-30T14:09:00.439Z,5.60
2017-11-30T14:11:27.926Z,5.60
2017-11-30T14:13:55.373Z,5.50
2017-11-30T14:16:22.830Z,5.50
2017-11-30T14:18:50.295Z,5.40
2017-11-30T14:21:17.774Z,5.30
2017-11-30T14:23:45.232Z,5.40
2017-11-30T14:26:12.689Z,5.30
2017-11-30T14:28:40.152Z,5.30
2017-11-30T14:31:07.654Z,5.30
2017-11-30T14:33:35.121Z,5.30
2017-11-30T14:36:02.591Z,5.30
2017-11-30T14:38:30.051Z,5.30
2017-11-30T14:40:57.542Z,5.30
2017-11-30T14:43:25.028Z,5.30
2017-11-30T14:45:52.502Z,5.30
2017-11-30T14:48:20.062Z,5.30
2017-11-30T14:50:47.561Z,5.30
2017-11-30T14:53:15.026Z,5.30
2017-11-30T14:55:42.477Z,5.30
2017-11-30T14:58:09.957Z,5.20
2017-11-30T15:00:37.473Z,5.20
2017-11-30T15:03:04.941Z,5.20
2017-11-30T15:05:33.309Z,5.20
2017-11-30T15:08:00.790Z,5.20
2017-11-30T15:10:28.402Z,5.30
2017-11-30T15:12:55.902Z,5.30
2017-11-30T15:15:23.375Z,5.30
2017-11-30T15:17:50.830Z,5.30
2017-11-30T15:20:18.304Z,5.30
2017-11-30T15:22:45.854Z,5.30
2017-11-30T15:25:14.113Z,5.30
2017-11-30T15:27:41.578Z,5.40
2017-11-30T15:30:09.058Z,5.40
2017-11-30T15:32:36.510Z,5.30
2017-11-30T15:35:04.094Z,5.40
2017-11-30T15:37:32.338Z,5.40
2017-11-30T15:39:59.806Z,5.40
2017-11-30T15:42:27.270Z,5.40
2017-11-30T15:44:54.733Z,5.40
2017-11-30T15:47:22.194Z,5.50
2017-11-30T15:49:49.678Z,5.40
2017-11-30T15:52:17.142Z,5.40
2017-11-30T15:54:44.591Z,5.30
2017-11-30T15:57:12.047Z,5.40
2017-11-30T15:59:39.538Z,5.40
2017-11-30T16:02:06.983Z,5.50
2017-11-30T16:04:34.510Z,5.40
2017-11-30T16:07:01.960Z,5.40
2017-11-30T16:09:29.422Z,5.40
2017-11-30T16:11:56.884Z,5.40
2017-11-30T16:14:24.342Z,5.40
2017-11-30T16:16:51.819Z,5.40
2017-11-30T16:19:19.283Z,5.30
2017-11-30T16:21:46.738Z,5.30
2017-11-30T16:24:14.236Z,5.30
2017-11-30T16:26:41.701Z,5.40
2017-11-30T16:29:09.926Z,5.40
2017-11-30T16:31:37.394Z,5.40
2017-11-30T16:34:04.843Z,5.40
2017-11-30T16:36:32.334Z,5.40
2017-11-30T16:38:59.815Z,5.40
2017-11-30T16:41:28.080Z,5.20
2017-11-30T16:43:56.344Z,5.20
2017-11-30T16:46:23.785Z,5.20
2017-11-30T16:48:51.247Z,5.20
2017-11-30T16:51:18.723Z,5.30
2017-11-30T16:53:46.185Z,5.40
2017-11-30T16:56:19.201Z,5.30
2017-11-30T16:58:46.654Z,5.40
2017-11-30T17:01:14.119Z,5.40
2017-11-30T17:03:41.576Z,5.40
2017-11-30T17:06:09.055Z,5.50
2017-11-30T17:08:36.515Z,5.50
2017-11-30T17:11:04.046Z,5.50
2017-11-30T17:13:31.502Z,5.50
2017-11-30T17:15:58.968Z,5.50
2017-11-30T17:18:26.432Z,5.50
2017-11-30T17:20:53.887Z,5.50
2017-11-30T17:23:21.349Z,5.60
2017-11-30T17:25:48.806Z,5.60
2017-11-30T17:28:16.266Z,5.60
2017-11-30T17:30:43.742Z,5.60
2017-11-30T17:33:11.199Z,5.60
2017-11-30T17:35:38.691Z,5.50
2017-11-30T17:38:06.166Z,5.50
2017-11-30T17:40:33.638Z,5.60
2017-11-30T17:43:01.112Z,5.60
2017-11-30T17:45:28.620Z,5.60
2017-11-30T17:47:56.866Z,5.60
2017-11-30T17:50:24.311Z,5.60
2017-11-30T17:52:51.777Z,5.50
2017-11-30T17:55:19.257Z,5.60
2017-11-30T17:57:47.493Z,5.50
2017-11-30T18:00:14.981Z,5.50
2017-11-30T18:02:44.553Z,5.60
2017-11-30T18:05:13.987Z,5.60
2017-11-30T18:07:44.350Z,5.60
2017-11-30T18:10:15.090Z,5.60
2017-11-30T18:12:44.120Z,5.60
2017-11-30T18:15:13.443Z,5.50
2017-11-30T18:17:42.004Z,5.60
2017-11-30T18:20:09.490Z,5.50
2017-11-30T18:22:36.973Z,5.60
2017-11-30T18:25:04.474Z,5.60
2017-11-30T18:27:31.940Z,5.60
2017-11-30T18:29:59.433Z,5.60
2017-11-30T18:32:27.658Z,5.70
2017-11-30T18:34:55.158Z,5.70
2017-11-30T18:37:22.643Z,5.70
2017-11-30T18:39:50.166Z,5.60
2017-11-30T18:42:18.429Z,5.40
2017-11-30T18:44:45.900Z,5.40
2017-11-30T18:47:14.742Z,5.30
2017-11-30T18:49:42.208Z,5.30
2017-11-30T18:52:10.351Z,5.40
2017-11-30T18:54:37.872Z,5.40
2017-11-30T18:57:06.406Z,5.40
2017-11-30T18:59:34.879Z,5.40
2017-11-30T19:02:02.858Z,5.40
2017-11-30T19:04:33.307Z,5.50
2017-11-30T19:07:07.501Z,5.50
2017-11-30T19:09:34.996Z,5.60
2017-11-30T19:12:03.781Z,5.60
2017-11-30T19:14:32.165Z,5.60
2017-11-30T19:17:00.626Z,5.60
2017-11-30T19:19:28.108Z,5.60
2017-11-30T19:21:56.460Z,5.60
2017-11-30T19:24:26.996Z,5.60
2017-11-30T19:26:54.463Z,5.60
2017-11-30T19:29:21.930Z,5.60
2017-11-30T19:31:50.182Z,5.60
2017-11-30T19:34:17.879Z,5.60
2017-11-30T19:39:22.391Z,5.50
2017-11-30T19:41:49.975Z,5.60
2017-11-30T19:44:19.220Z,5.60
2017-11-30T19:46:46.777Z,5.60
2017-11-30T19:49:17.102Z,5.60
2017-11-30T19:51:45.949Z,5.60
2017-11-30T19:54:14.806Z,5.50
2017-11-30T19:56:44.519Z,5.40
2017-11-30T19:59:12.164Z,5.40
2017-11-30T20:01:42.281Z,5.30
2017-11-30T20:07:00.801Z,5.20
2017-11-30T20:09:29.123Z,5.00
2017-11-30T20:12:00.272Z,5.00
2017-11-30T20:14:27.742Z,5.00
2017-11-30T20:16:56.206Z,5.00
2017-11-30T20:19:28.172Z,4.90
2017-11-30T20:21:58.642Z,4.90
2017-11-30T20:24:26.284Z,4.90
2017-11-30T20:26:54.728Z,4.70
2017-11-30T20:29:41.888Z,4.70
2017-11-30T20:32:09.417Z,4.60
2017-11-30T20:34:37.045Z,4.60
2017-11-30T20:37:12.629Z,4.50
2017-11-30T20:39:40.186Z,4.40
2017-11-30T20:42:10.455Z,4.40
2017-11-30T20:44:38.067Z,4.40
2017-11-30T20:47:07.139Z,4.50
2017-11-30T20:49:36.096Z,4.60
2017-11-30T20:52:05.689Z,4.60
2017-11-30T20:54:35.045Z,4.70
2017-11-30T20:57:02.828Z,4.70
2017-11-30T20:59:30.399Z,4.80
2017-11-30T21:01:57.866Z,4.70
2017-11-30T21:04:25.422Z,4.70
2017-11-30T21:06:55.328Z,4.80
2017-11-30T21:09:23.905Z,4.80
2017-11-30T21:11:51.382Z,4.90
2017-11-30T21:14:19.630Z,4.80
2017-11-30T21:16:47.096Z,4.80
2017-11-30T21:19:15.621Z,4.80
2017-11-30T21:21:43.228Z,4.90
2017-11-30T21:24:10.724Z,4.80
2017-11-30T21:26:38.219Z,4.90
2017-11-30T21:29:08.324Z,4.90
2017-11-30T21:31:36.999Z,4.90
2017-11-30T21:34:04.488Z,4.90
2017-11-30T21:36:32.016Z,4.90
2017-11-30T21:38:59.570Z,5.00
2017-11-30T21:41:27.067Z,5.10
2017-11-30T21:43:54.537Z,5.00
2017-11-30T21:46:22.011Z,5.10
2017-11-30T21:48:49.587Z,5.10
2017-11-30T21:51:17.622Z,5.10
2017-11-30T21:53:47.225Z,5.10
2017-11-30T21:56:15.294Z,5.20
2017-11-30T21:58:44.279Z,5.20
2017-11-30T22:01:13.368Z,5.20
2017-11-30T22:03:41.512Z,5.20
2017-11-30T22:06:09.778Z,5.20
2017-11-30T22:08:38.099Z,5.20
2017-11-30T22:11:05.696Z,5.20
2017-11-30T22:13:33.177Z,5.20
2017-11-30T22:16:01.442Z,5.20
2017-11-30T22:18:29.010Z,5.20
2017-11-30T22:20:56.517Z,5.20
2017-11-30T22:23:24.038Z,5.20
2017-11-30T22:25:51.625Z,5.20
2017-11-30T22:28:22.295Z,5.20
2017-11-30T22:30:50.084Z,5.30
2017-11-30T22:33:17.757Z,5.20
2017-11-30T22:35:45.317Z,5.10
2017-11-30T22:38:13.183Z,5.00
2017-11-30T22:40:40.800Z,5.00
2017-11-30T22:43:08.461Z,4.90
2017-11-30T22:45:36.003Z,4.80
2017-11-30T22:48:03.526Z,4.80
2017-11-30T22:50:31.055Z,4.80
2017-11-30T22:52:58.524Z,4.80
2017-11-30T22:55:26.116Z,4.80
2017-11-30T22:57:53.715Z,4.70
2017-11-30T23:00:21.215Z,4.70
2017-11-30T23:02:48.867Z,4.60
2017-11-30T23:05:16.389Z,4.60
2017-11-30T23:07:43.886Z,4.50
2017-11-30T23:10:11.382Z,4.40
2017-11-30T23:12:38.875Z,4.30
2017-11-30T23:15:06.448Z,4.20
2017-11-30T23:17:34.766Z,4.10
2017-11-30T23:20:02.295Z,4.10
2017-11-30T23:22:29.816Z,4.20
2017-11-30T23:24:57.303Z,4.20
2017-11-30T23:27:24.833Z,4.20
2017-11-30T23:29:52.370Z,4.30
2017-11-30T23:32:19.941Z,4.20
2017-11-30T23:34:47.458Z,4.20
2017-11-30T23:37:14.985Z,4.30
2017-11-30T23:39:42.510Z,4.30
2017-11-30T23:42:10.020Z,4.30
2017-11-30T23:44:37.524Z,4.30
2017-11-30T23:47:05.043Z,4.30
2017-11-30T23:49:32.541Z,4.30
2017-11-30T23:52:00.019Z,4.20
2017-11-30T23:54:27.496Z,4.10
2017-11-30T23:56:55.784Z,4.00
2017-11-30T23:59:23.256Z,3.90
